Time;durP1;ratioP1;P1;durP2;ratioP2;P2;SDS_P1;SDS_P2;PMS_P1;PMS_P2;Temp;Humidity;BMP_temperature;BMP_pressure;BME280_temperature;BME280_humidity;BME280_pressure;Samples;Min_cycle;Max_cycle;Signal;HPM_P1;HPM_P2
2023/12/30 00:00:05;;;;;;;2.83;0.75;;;;;;;;;;5097777;28;20067;-65
2023/12/30 00:02:33;;;;;;;2.13;0.60;;;;;;;;;;5060264;28;20118;-65
2023/12/30 00:05:01;;;;;;;7.63;0.67;;;;;;;;;;5089147;28;20059;-67
2023/12/30 00:07:27;;;;;;;7.93;0.90;;;;;;;;;;5075088;28;20048;-67
2023/12/30 00:09:56;;;;;;;7.50;0.70;;;;;;;;;;5086683;28;20274;-66
2023/12/30 00:12:25;;;;;;;5.68;1.02;;;;;;;;;;5100713;28;20109;-65
2023/12/30 00:14:51;;;;;;;7.47;0.98;;;;;;;;;;5057872;28;20048;-65
2023/12/30 00:17:18;;;;;;;5.50;0.65;;;;;;;;;;5072128;28;20076;-65
2023/12/30 00:19:46;;;;;;;5.38;0.82;;;;;;;;;;5065512;28;20254;-66
2023/12/30 00:22:13;;;;;;;8.98;1.05;;;;;;;;;;5066190;28;20055;-66
2023/12/30 00:24:42;;;;;;;4.95;0.50;;;;;;;;;;5058332;28;20059;-66
2023/12/30 00:27:10;;;;;;;2.83;0.57;;;;;;;;;;5075799;28;20101;-67
2023/12/30 00:29:40;;;;;;;3.85;0.80;;;;;;;;;;5052215;28;20095;-66
2023/12/30 00:32:07;;;;;;;3.42;0.95;;;;;;;;;;5068813;28;20072;-66
2023/12/30 00:34:35;;;;;;;2.85;0.55;;;;;;;;;;5021279;28;20139;-66
2023/12/30 00:37:04;;;;;;;5.07;0.68;;;;;;;;;;5061210;28;20047;-65
2023/12/30 00:39:30;;;;;;;4.93;0.70;;;;;;;;;;5065326;28;21051;-65
2023/12/30 00:41:57;;;;;;;6.47;1.00;;;;;;;;;;5072102;28;20060;-66
2023/12/30 00:44:26;;;;;;;3.28;0.80;;;;;;;;;;5062555;28;20484;-65
2023/12/30 00:46:54;;;;;;;1.48;0.50;;;;;;;;;;5059009;28;20059;-65
2023/12/30 00:49:22;;;;;;;8.05;0.80;;;;;;;;;;5058820;28;20108;-67
2023/12/30 00:51:51;;;;;;;2.90;0.70;;;;;;;;;;5055689;28;20044;-66
2023/12/30 00:54:18;;;;;;;4.93;0.95;;;;;;;;;;5043774;28;20055;-66
2023/12/30 00:56:45;;;;;;;5.13;0.75;;;;;;;;;;5071278;28;20143;-64
2023/12/30 00:59:13;;;;;;;4.38;1.00;;;;;;;;;;5067647;28;20067;-66
2023/12/30 01:01:40;;;;;;;5.67;0.90;;;;;;;;;;5073624;28;20144;-66
2023/12/30 01:04:08;;;;;;;4.05;0.77;;;;;;;;;;5041833;28;20062;-66
2023/12/30 01:06:35;;;;;;;3.67;0.60;;;;;;;;;;5059710;28;20114;-65
2023/12/30 01:09:02;;;;;;;5.55;0.90;;;;;;;;;;5082085;28;20064;-65
2023/12/30 01:11:29;;;;;;;7.00;1.27;;;;;;;;;;5064890;28;20083;-65
2023/12/30 01:13:57;;;;;;;4.10;0.55;;;;;;;;;;5034990;28;20133;-65
2023/12/30 01:16:24;;;;;;;1.90;0.75;;;;;;;;;;5063354;28;20056;-65
2023/12/30 01:18:50;;;;;;;11.05;0.90;;;;;;;;;;5067250;28;20083;-66
2023/12/30 01:21:21;;;;;;;6.25;0.70;;;;;;;;;;5055329;28;20047;-67
2023/12/30 01:23:47;;;;;;;5.00;1.33;;;;;;;;;;5074082;28;20062;-67
2023/12/30 01:26:14;;;;;;;6.03;1.20;;;;;;;;;;5063672;28;20085;-66
2023/12/30 01:28:41;;;;;;;12.93;3.72;;;;;;;;;;5054829;28;20060;-63
2023/12/30 01:31:08;;;;;;;3.20;1.23;;;;;;;;;;5080274;28;20125;-65
2023/12/30 01:33:34;;;;;;;6.53;1.10;;;;;;;;;;5048633;28;20241;-65
2023/12/30 01:36:01;;;;;;;3.67;0.90;;;;;;;;;;5068843;28;20128;-66
2023/12/30 01:38:29;;;;;;;5.95;0.98;;;;;;;;;;5070281;28;20048;-65
2023/12/30 01:40:56;;;;;;;1.92;0.43;;;;;;;;;;5065817;28;20144;-67
2023/12/30 01:43:24;;;;;;;6.63;0.73;;;;;;;;;;5057536;28;20059;-66
2023/12/30 01:45:52;;;;;;;4.82;0.70;;;;;;;;;;5066558;28;20060;-66
2023/12/30 01:48:19;;;;;;;2.42;0.90;;;;;;;;;;5075324;28;20059;-65
2023/12/30 01:50:46;;;;;;;6.22;0.60;;;;;;;;;;5059223;28;20049;-65
2023/12/30 01:53:14;;;;;;;4.97;0.75;;;;;;;;;;5055127;28;20059;-65
2023/12/30 01:55:43;;;;;;;12.57;0.98;;;;;;;;;;5060329;28;20127;-65
2023/12/30 01:58:10;;;;;;;3.55;0.68;;;;;;;;;;5053776;28;20053;-66
2023/12/30 02:00:39;;;;;;;3.83;0.82;;;;;;;;;;5058504;28;20067;-65
2023/12/30 02:03:06;;;;;;;6.00;0.90;;;;;;;;;;5062826;28;20120;-66
2023/12/30 02:05:33;;;;;;;5.18;0.88;;;;;;;;;;5046972;28;20307;-66
2023/12/30 02:07:59;;;;;;;4.10;0.70;;;;;;;;;;5060514;28;20101;-66
2023/12/30 02:10:26;;;;;;;4.40;0.70;;;;;;;;;;5061648;28;20076;-66
2023/12/30 02:12:54;;;;;;;4.05;0.70;;;;;;;;;;5068725;28;20060;-66
2023/12/30 02:15:22;;;;;;;7.35;1.20;;;;;;;;;;5070629;28;20088;-66
2023/12/30 02:17:51;;;;;;;2.28;0.77;;;;;;;;;;5059928;28;20051;-66
2023/12/30 02:20:18;;;;;;;6.70;0.68;;;;;;;;;;5067008;28;20057;-66
2023/12/30 02:22:47;;;;;;;3.88;0.85;;;;;;;;;;5068019;28;20064;-67
2023/12/30 02:25:14;;;;;;;;;;;;;;;;;;5084082;28;20159;-66
2023/12/30 02:27:42;;;;;;;5.97;0.82;;;;;;;;;;5059511;28;19924;-67
2023/12/30 02:30:09;;;;;;;3.90;0.52;;;;;;;;;;5071539;28;20148;-66
2023/12/30 02:32:36;;;;;;;4.53;0.77;;;;;;;;;;5066127;28;20043;-66
2023/12/30 02:35:02;;;;;;;7.22;1.05;;;;;;;;;;5072094;28;20188;-66
2023/12/30 02:37:29;;;;;;;5.93;0.73;;;;;;;;;;5052888;28;20056;-66
2023/12/30 02:39:57;;;;;;;2.00;0.50;;;;;;;;;;5064717;28;20084;-67
2023/12/30 02:42:24;;;;;;;1.08;0.45;;;;;;;;;;5070477;28;20171;-66
2023/12/30 02:44:51;;;;;;;2.38;0.70;;;;;;;;;;5062297;28;20064;-66
2023/12/30 02:47:18;;;;;;;2.67;0.50;;;;;;;;;;5059711;28;20048;-65
2023/12/30 02:49:45;;;;;;;4.30;1.27;;;;;;;;;;5062800;28;20048;-66
2023/12/30 02:52:12;;;;;;;4.77;0.60;;;;;;;;;;5070138;28;20387;-66
2023/12/30 02:54:39;;;;;;;3.70;0.90;;;;;;;;;;5071308;28;20080;-65
2023/12/30 02:57:07;;;;;;;6.85;0.75;;;;;;;;;;5060369;28;20128;-66
2023/12/30 02:59:34;;;;;;;3.25;0.57;;;;;;;;;;5055702;28;20056;-66
2023/12/30 03:02:00;;;;;;;5.00;0.68;;;;;;;;;;5060908;28;20114;-65
2023/12/30 03:04:27;;;;;;;1.90;0.65;;;;;;;;;;5055872;28;20084;-65
2023/12/30 03:06:54;;;;;;;7.88;1.08;;;;;;;;;;5068495;28;20056;-64
2023/12/30 03:09:20;;;;;;;1.52;0.63;;;;;;;;;;5066655;28;20133;-66
2023/12/30 03:11:50;;;;;;;4.88;0.70;;;;;;;;;;5057067;28;20062;-66
2023/12/30 03:14:18;;;;;;;2.85;0.55;;;;;;;;;;5062804;28;20048;-65
2023/12/30 03:16:44;;;;;;;6.07;0.95;;;;;;;;;;5066159;28;20072;-66
2023/12/30 03:19:11;;;;;;;4.22;0.85;;;;;;;;;;5056776;28;20122;-65
2023/12/30 03:21:38;;;;;;;7.50;0.98;;;;;;;;;;5073095;28;20060;-65
2023/12/30 03:24:05;;;;;;;9.30;0.75;;;;;;;;;;5059401;28;20085;-66
2023/12/30 03:26:31;;;;;;;4.40;0.90;;;;;;;;;;5070596;28;20117;-65
2023/12/30 03:28:58;;;;;;;11.00;1.10;;;;;;;;;;5054954;28;20059;-66
2023/12/30 03:31:27;;;;;;;4.15;0.70;;;;;;;;;;5057633;28;20161;-66
2023/12/30 03:33:55;;;;;;;4.32;0.60;;;;;;;;;;5061948;28;20055;-66
2023/12/30 03:36:22;;;;;;;6.70;0.88;;;;;;;;;;5075987;28;20060;-65
2023/12/30 03:38:49;;;;;;;5.95;0.95;;;;;;;;;;5072291;28;20064;-65
2023/12/30 03:41:16;;;;;;;6.35;0.82;;;;;;;;;;5057401;28;20147;-66
2023/12/30 03:43:43;;;;;;;2.85;0.70;;;;;;;;;;5069677;28;20079;-66
2023/12/30 03:46:09;;;;;;;6.93;0.68;;;;;;;;;;5068597;28;20064;-66
2023/12/30 03:48:37;;;;;;;3.08;1.13;;;;;;;;;;5070228;28;20060;-66
2023/12/30 03:51:05;;;;;;;5.63;0.80;;;;;;;;;;5064315;28;20063;-66
2023/12/30 03:53:32;;;;;;;2.90;0.40;;;;;;;;;;5081775;28;20177;-65
2023/12/30 03:55:59;;;;;;;8.30;1.38;;;;;;;;;;5077012;28;20071;-67
2023/12/30 03:58:25;;;;;;;4.07;0.82;;;;;;;;;;5075143;28;20052;-66
2023/12/30 04:00:53;;;;;;;7.55;0.73;;;;;;;;;;5061148;28;20056;-67
2023/12/30 04:03:19;;;;;;;6.75;1.00;;;;;;;;;;5067213;28;20060;-67
2023/12/30 04:05:48;;;;;;;3.53;0.70;;;;;;;;;;5075919;28;20062;-67
2023/12/30 04:08:15;;;;;;;3.45;0.65;;;;;;;;;;5065179;28;20133;-66
2023/12/30 04:10:42;;;;;;;1.60;0.52;;;;;;;;;;5077413;28;20060;-66
2023/12/30 04:13:09;;;;;;;6.35;1.10;;;;;;;;;;5072063;28;20088;-66
2023/12/30 04:15:36;;;;;;;4.28;0.85;;;;;;;;;;5058243;28;20062;-66
2023/12/30 04:18:03;;;;;;;5.60;0.80;;;;;;;;;;5066941;28;20068;-66
2023/12/30 04:20:30;;;;;;;3.65;0.60;;;;;;;;;;5069089;28;20056;-66
2023/12/30 04:22:58;;;;;;;3.75;0.90;;;;;;;;;;5065092;28;20047;-66
2023/12/30 04:25:24;;;;;;;3.88;1.10;;;;;;;;;;5064887;28;20060;-66
2023/12/30 04:27:51;;;;;;;3.22;0.80;;;;;;;;;;5076814;28;20117;-66
2023/12/30 04:30:17;;;;;;;7.47;1.05;;;;;;;;;;5071329;28;20067;-66
2023/12/30 04:32:44;;;;;;;7.25;0.85;;;;;;;;;;5061921;28;20144;-66
2023/12/30 04:35:11;;;;;;;5.55;0.63;;;;;;;;;;5067253;28;20107;-66
2023/12/30 04:37:37;;;;;;;6.75;1.02;;;;;;;;;;5078876;28;20072;-65
2023/12/30 04:40:08;;;;;;;5.47;0.80;;;;;;;;;;5064677;28;20043;-66
2023/12/30 04:42:35;;;;;;;4.97;1.08;;;;;;;;;;5074926;28;20052;-66
2023/12/30 04:45:01;;;;;;;4.22;1.15;;;;;;;;;;5054603;28;20052;-66
2023/12/30 04:47:28;;;;;;;4.20;0.70;;;;;;;;;;5066116;28;20168;-66
2023/12/30 04:49:55;;;;;;;3.85;0.60;;;;;;;;;;5082725;28;20144;-66
2023/12/30 04:52:21;;;;;;;6.68;0.88;;;;;;;;;;5081072;28;20056;-65
2023/12/30 04:54:48;;;;;;;6.10;0.77;;;;;;;;;;5064442;28;20067;-66
2023/12/30 04:57:16;;;;;;;5.18;0.93;;;;;;;;;;5073424;28;20060;-66
2023/12/30 04:59:43;;;;;;;5.10;0.90;;;;;;;;;;5067571;28;20048;-66
2023/12/30 05:02:10;;;;;;;2.22;0.70;;;;;;;;;;5064571;28;20162;-67
2023/12/30 05:04:38;;;;;;;8.52;1.10;;;;;;;;;;5064866;28;21283;-66
2023/12/30 05:07:05;;;;;;;6.90;1.10;;;;;;;;;;5068599;28;20051;-66
2023/12/30 05:09:35;;;;;;;7.75;0.93;;;;;;;;;;5075685;28;20125;-68
2023/12/30 05:12:01;;;;;;;3.70;0.88;;;;;;;;;;5066278;28;20053;-67
2023/12/30 05:14:30;;;;;;;1.70;0.60;;;;;;;;;;5064600;28;20044;-67
2023/12/30 05:16:56;;;;;;;2.75;0.75;;;;;;;;;;5057832;28;20132;-66
2023/12/30 05:19:23;;;;;;;4.45;0.75;;;;;;;;;;5066491;28;20162;-66
2023/12/30 05:21:51;;;;;;;4.18;0.98;;;;;;;;;;5053920;28;20153;-67
2023/12/30 05:24:18;;;;;;;10.60;1.10;;;;;;;;;;5070906;28;20067;-66
2023/12/30 05:26:45;;;;;;;5.90;0.85;;;;;;;;;;5061959;28;20077;-65
2023/12/30 05:29:11;;;;;;;4.15;0.40;;;;;;;;;;5070806;28;20056;-66
2023/12/30 05:31:39;;;;;;;3.10;0.80;;;;;;;;;;5065815;28;20144;-66
2023/12/30 05:34:06;;;;;;;7.10;1.10;;;;;;;;;;5069388;28;20052;-67
2023/12/30 05:36:33;;;;;;;6.60;0.90;;;;;;;;;;5066857;28;20115;-66
2023/12/30 05:39:00;;;;;;;3.75;0.80;;;;;;;;;;5065401;28;20138;-66
2023/12/30 05:41:27;;;;;;;5.53;0.82;;;;;;;;;;5061122;28;20191;-66
2023/12/30 05:43:53;;;;;;;5.97;0.77;;;;;;;;;;5076771;28;20056;-66
2023/12/30 05:46:20;;;;;;;6.43;0.90;;;;;;;;;;5059937;28;21267;-66
2023/12/30 05:48:48;;;;;;;10.07;0.82;;;;;;;;;;5079477;28;20090;-65
2023/12/30 05:51:15;;;;;;;8.00;0.85;;;;;;;;;;5073960;28;20186;-67
2023/12/30 05:53:41;;;;;;;7.78;0.85;;;;;;;;;;5072115;28;20063;-66
2023/12/30 05:56:08;;;;;;;7.85;1.27;;;;;;;;;;5058785;28;20052;-66
2023/12/30 05:58:37;;;;;;;8.63;0.70;;;;;;;;;;5061850;28;20144;-66
2023/12/30 06:01:04;;;;;;;6.20;1.40;;;;;;;;;;5070194;28;20167;-66
2023/12/30 06:03:31;;;;;;;9.63;1.35;;;;;;;;;;5019046;28;20060;-66
2023/12/30 06:05:59;;;;;;;7.10;0.75;;;;;;;;;;5034765;28;20135;-68
2023/12/30 06:08:26;;;;;;;5.82;1.02;;;;;;;;;;5037858;28;20090;-66
2023/12/30 06:10:53;;;;;;;5.88;1.02;;;;;;;;;;5035302;28;20060;-66
2023/12/30 06:13:20;;;;;;;4.45;0.95;;;;;;;;;;5032427;28;20082;-67
2023/12/30 06:15:49;;;;;;;9.95;1.13;;;;;;;;;;5036239;28;20155;-67
2023/12/30 06:18:16;;;;;;;5.25;1.27;;;;;;;;;;5019686;28;20075;-66
2023/12/30 06:20:44;;;;;;;5.10;0.90;;;;;;;;;;5035127;28;20135;-67
2023/12/30 06:23:13;;;;;;;6.93;0.70;;;;;;;;;;5036045;28;20059;-66
2023/12/30 06:25:39;;;;;;;8.45;1.10;;;;;;;;;;5015294;28;20052;-66
2023/12/30 06:28:06;;;;;;;6.68;1.10;;;;;;;;;;5040898;28;20147;-66
2023/12/30 06:30:34;;;;;;;2.72;0.90;;;;;;;;;;5047682;28;20092;-65
2023/12/30 06:33:06;;;;;;;5.32;1.02;;;;;;;;;;5050074;28;20132;-65
2023/12/30 06:35:33;;;;;;;4.85;1.05;;;;;;;;;;5043589;28;20164;-66
2023/12/30 06:38:01;;;;;;;6.28;1.13;;;;;;;;;;5013605;28;20063;-65
2023/12/30 06:40:31;;;;;;;5.03;1.27;;;;;;;;;;5032178;28;20060;-66
2023/12/30 06:42:57;;;;;;;3.90;1.20;;;;;;;;;;5032146;28;20097;-66
2023/12/30 06:45:24;;;;;;;5.25;1.25;;;;;;;;;;5021255;28;20063;-66
2023/12/30 06:47:52;;;;;;;8.68;1.30;;;;;;;;;;5044551;28;20138;-65
2023/12/30 06:50:20;;;;;;;5.95;0.98;;;;;;;;;;5025797;28;20052;-66
2023/12/30 06:52:46;;;;;;;2.70;0.95;;;;;;;;;;5029612;28;20079;-66
2023/12/30 06:55:14;;;;;;;9.15;1.30;;;;;;;;;;5042850;28;20064;-65
2023/12/30 06:57:42;;;;;;;4.17;1.10;;;;;;;;;;5029909;28;20044;-66
2023/12/30 07:00:09;;;;;;;2.33;0.90;;;;;;;;;;5022120;28;20139;-65
2023/12/30 07:02:36;;;;;;;10.75;1.20;;;;;;;;;;5060937;28;20075;-66
2023/12/30 07:05:06;;;;;;;3.30;0.80;;;;;;;;;;5055840;28;20052;-66
2023/12/30 07:07:33;;;;;;;7.88;1.40;;;;;;;;;;5070532;28;20147;-65
2023/12/30 07:09:59;;;;;;;4.97;0.80;;;;;;;;;;5061483;28;20044;-66
2023/12/30 07:12:26;;;;;;;4.20;0.93;;;;;;;;;;5059652;28;20064;-66
2023/12/30 07:14:54;;;;;;;4.30;1.10;;;;;;;;;;5073088;28;20090;-68
2023/12/30 07:17:20;;;;;;;8.95;1.60;;;;;;;;;;5073098;28;20083;-65
2023/12/30 07:19:47;;;;;;;7.88;1.20;;;;;;;;;;5076140;28;20044;-67
2023/12/30 07:22:15;;;;;;;5.63;1.50;;;;;;;;;;5050985;28;20059;-66
2023/12/30 07:24:41;;;;;;;8.95;1.40;;;;;;;;;;5051651;28;20048;-65
2023/12/30 07:27:08;;;;;;;6.05;1.38;;;;;;;;;;5067250;28;20060;-66
2023/12/30 07:29:35;;;;;;;9.05;1.35;;;;;;;;;;5067833;28;20189;-66
2023/12/30 07:32:03;;;;;;;10.32;1.42;;;;;;;;;;5064063;28;20050;-66
2023/12/30 07:34:30;;;;;;;5.40;1.17;;;;;;;;;;5059721;28;20141;-66
2023/12/30 07:36:58;;;;;;;7.20;1.42;;;;;;;;;;5068636;28;20136;-68
2023/12/30 07:39:25;;;;;;;6.40;1.30;;;;;;;;;;5070023;28;20048;-66
2023/12/30 07:41:51;;;;;;;6.10;1.15;;;;;;;;;;5059766;28;20156;-66
2023/12/30 07:44:18;;;;;;;5.07;1.25;;;;;;;;;;5066375;28;20143;-66
2023/12/30 07:46:45;;;;;;;7.75;1.60;;;;;;;;;;5067932;28;20063;-66
2023/12/30 07:49:14;;;;;;;9.55;2.78;;;;;;;;;;5065930;28;20067;-68
2023/12/30 07:51:43;;;;;;;18.02;6.80;;;;;;;;;;5061439;28;20055;-66
2023/12/30 07:54:09;;;;;;;8.13;1.60;;;;;;;;;;5064971;28;20048;-67
2023/12/30 07:56:36;;;;;;;6.78;1.48;;;;;;;;;;5072695;28;20056;-66
2023/12/30 07:59:03;;;;;;;3.83;1.15;;;;;;;;;;5071242;28;20052;-66
2023/12/30 08:01:29;;;;;;;11.75;1.70;;;;;;;;;;5073521;28;20232;-66
2023/12/30 08:03:56;;;;;;;8.10;1.70;;;;;;;;;;5071332;28;20139;-66
2023/12/30 08:06:24;;;;;;;4.35;1.40;;;;;;;;;;5078258;28;20102;-65
2023/12/30 08:08:51;;;;;;;7.18;1.88;;;;;;;;;;5064886;28;20048;-66
2023/12/30 08:11:18;;;;;;;4.07;1.15;;;;;;;;;;5060995;28;20142;-66
2023/12/30 08:13:44;;;;;;;5.50;1.05;;;;;;;;;;5076621;28;20113;-66
2023/12/30 08:16:11;;;;;;;6.60;1.30;;;;;;;;;;5064490;28;21454;-66
2023/12/30 08:18:38;;;;;;;6.55;1.60;;;;;;;;;;5061022;28;20123;-66
2023/12/30 08:21:05;;;;;;;8.55;1.20;;;;;;;;;;5057376;28;20060;-66
2023/12/30 08:23:33;;;;;;;4.18;1.15;;;;;;;;;;5063005;28;20064;-67
2023/12/30 08:26:00;;;;;;;4.97;1.30;;;;;;;;;;5080700;28;20120;-66
2023/12/30 08:28:27;;;;;;;5.15;1.17;;;;;;;;;;5066557;28;20086;-66
2023/12/30 08:30:54;;;;;;;3.70;1.02;;;;;;;;;;5065563;28;20075;-66
2023/12/30 08:33:21;;;;;;;4.40;1.27;;;;;;;;;;5070771;28;20065;-67
2023/12/30 08:35:48;;;;;;;5.15;1.10;;;;;;;;;;5058402;28;20143;-66
2023/12/30 08:38:15;;;;;;;16.50;4.13;;;;;;;;;;5057868;28;20101;-66
2023/12/30 08:40:44;;;;;;;15.70;3.03;;;;;;;;;;5065661;28;20052;-66
2023/12/30 08:43:13;;;;;;;5.88;1.73;;;;;;;;;;5079285;28;20058;-66
2023/12/30 08:45:40;;;;;;;9.57;1.23;;;;;;;;;;5067173;28;20106;-65
2023/12/30 08:48:07;;;;;;;7.07;1.23;;;;;;;;;;5050452;28;20125;-67
2023/12/30 08:50:34;;;;;;;10.13;1.42;;;;;;;;;;5084201;28;20072;-66
2023/12/30 08:53:00;;;;;;;7.05;1.58;;;;;;;;;;5064593;28;20422;-66
2023/12/30 08:55:30;;;;;;;8.23;1.23;;;;;;;;;;5021575;28;20117;-65
2023/12/30 08:57:59;;;;;;;4.18;1.20;;;;;;;;;;5061522;28;20395;-67
2023/12/30 09:00:25;;;;;;;6.57;1.30;;;;;;;;;;5061470;28;20145;-66
2023/12/30 09:02:55;;;;;;;5.55;1.50;;;;;;;;;;5048430;28;20048;-66
2023/12/30 09:05:22;;;;;;;6.10;1.17;;;;;;;;;;5023075;28;20064;-66
2023/12/30 09:07:52;;;;;;;12.43;1.40;;;;;;;;;;5036291;28;20068;-65
2023/12/30 09:10:20;;;;;;;4.57;1.17;;;;;;;;;;5052574;28;20052;-66
2023/12/30 09:12:47;;;;;;;5.15;0.93;;;;;;;;;;5039693;28;20076;-67
2023/12/30 09:15:15;;;;;;;4.93;1.25;;;;;;;;;;5038104;28;20053;-67
2023/12/30 09:17:41;;;;;;;11.48;1.55;;;;;;;;;;5015138;28;20049;-65
2023/12/30 09:20:09;;;;;;;4.45;1.13;;;;;;;;;;5013162;28;20059;-66
2023/12/30 09:22:36;;;;;;;5.70;1.20;;;;;;;;;;5015544;28;20084;-66
2023/12/30 09:25:04;;;;;;;6.45;1.50;;;;;;;;;;5020080;28;20135;-66
2023/12/30 09:27:34;;;;;;;12.68;1.58;;;;;;;;;;5042467;28;20140;-65
2023/12/30 09:30:00;;;;;;;9.75;1.45;;;;;;;;;;5026676;28;20090;-65
2023/12/30 09:32:33;;;;;;;8.30;1.17;;;;;;;;;;5036072;28;20105;-66
2023/12/30 09:35:01;;;;;;;13.35;2.40;;;;;;;;;;5039624;28;20055;-66
2023/12/30 09:37:31;;;;;;;5.95;1.77;;;;;;;;;;5027030;28;20140;-66
2023/12/30 09:39:57;;;;;;;4.32;1.20;;;;;;;;;;5045814;28;20155;-67
2023/12/30 09:42:24;;;;;;;6.93;1.20;;;;;;;;;;5019241;28;20057;-66
2023/12/30 09:44:51;;;;;;;3.42;1.05;;;;;;;;;;5029317;28;20070;-66
2023/12/30 09:47:19;;;;;;;10.60;1.40;;;;;;;;;;5053699;28;20065;-66
2023/12/30 09:49:50;;;;;;;6.43;1.08;;;;;;;;;;5040153;28;20048;-66
2023/12/30 09:52:16;;;;;;;5.88;1.23;;;;;;;;;;5024860;28;20048;-66
2023/12/30 09:54:43;;;;;;;13.63;1.70;;;;;;;;;;5035412;28;20056;-66
2023/12/30 09:57:14;;;;;;;10.10;1.50;;;;;;;;;;5044180;28;20053;-66
2023/12/30 09:59:41;;;;;;;7.63;1.13;;;;;;;;;;5023263;28;20045;-66
2023/12/30 10:02:10;;;;;;;6.65;1.15;;;;;;;;;;5056781;28;20260;-67
2023/12/30 10:04:37;;;;;;;6.70;1.45;;;;;;;;;;5057814;28;20067;-65
2023/12/30 10:07:07;;;;;;;10.65;1.42;;;;;;;;;;5060963;28;20133;-67
2023/12/30 10:09:34;;;;;;;7.47;1.13;;;;;;;;;;5067366;28;20235;-65
2023/12/30 10:12:01;;;;;;;5.32;1.15;;;;;;;;;;5063991;28;20083;-67
2023/12/30 10:14:30;;;;;;;7.05;1.13;;;;;;;;;;5012963;28;20056;-66
2023/12/30 10:16:56;;;;;;;12.23;4.10;;;;;;;;;;5046437;28;20060;-67
2023/12/30 10:19:23;;;;;;;6.53;1.58;;;;;;;;;;5066567;28;20044;-65
2023/12/30 10:21:50;;;;;;;8.13;1.10;;;;;;;;;;5062944;28;20066;-65
2023/12/30 10:24:18;;;;;;;4.03;0.93;;;;;;;;;;5044091;28;20060;-65
2023/12/30 10:26:45;;;;;;;8.27;1.10;;;;;;;;;;5061070;28;20112;-65
2023/12/30 10:29:16;;;;;;;4.47;0.98;;;;;;;;;;5065042;28;20068;-65
2023/12/30 10:31:43;;;;;;;7.10;1.20;;;;;;;;;;5070537;28;20051;-64
2023/12/30 10:34:09;;;;;;;3.28;0.95;;;;;;;;;;5058281;28;20044;-65
2023/12/30 10:36:36;;;;;;;7.20;1.60;;;;;;;;;;5072834;28;20067;-65
2023/12/30 10:39:04;;;;;;;10.00;1.70;;;;;;;;;;5074933;28;20056;-66
2023/12/30 10:41:50;;;;;;;9.20;1.40;;;;;;;;;;5076245;28;20129;-68
2023/12/30 10:44:17;;;;;;;6.28;1.35;;;;;;;;;;5052787;28;20100;-65
2023/12/30 10:46:48;;;;;;;10.50;1.63;;;;;;;;;;5078726;28;20083;-66
2023/12/30 10:49:17;;;;;;;9.25;1.42;;;;;;;;;;5068315;28;20056;-65
2023/12/30 10:51:44;;;;;;;8.27;1.90;;;;;;;;;;5067729;28;20056;-65
2023/12/30 10:54:14;;;;;;;7.65;2.05;;;;;;;;;;5055969;28;20125;-65
2023/12/30 10:56:45;;;;;;;7.88;1.80;;;;;;;;;;5070631;28;20051;-65
2023/12/30 10:59:14;;;;;;;11.15;2.28;;;;;;;;;;5065483;28;20139;-66
2023/12/30 11:01:41;;;;;;;7.57;1.35;;;;;;;;;;5061953;28;20570;-66
2023/12/30 11:04:12;;;;;;;8.57;1.67;;;;;;;;;;5049641;28;20059;-66
2023/12/30 11:06:48;;;;;;;8.35;1.35;;;;;;;;;;5068916;28;20068;-67
2023/12/30 11:09:14;;;;;;;9.30;2.13;;;;;;;;;;5055925;28;20045;-66
2023/12/30 11:11:49;;;;;;;1.63;0.90;;;;;;;;;;5061297;28;20067;-67
2023/12/30 11:14:20;;;;;;;10.13;1.60;;;;;;;;;;5040486;28;20144;-66
2023/12/30 11:16:55;;;;;;;10.85;2.17;;;;;;;;;;5068386;28;20087;-66
2023/12/30 11:19:29;;;;;;;7.82;1.48;;;;;;;;;;5063454;28;20057;-65
2023/12/30 11:22:00;;;;;;;10.05;1.50;;;;;;;;;;5060320;28;20063;-66
2023/12/30 11:24:27;;;;;;;8.60;1.67;;;;;;;;;;5065118;28;20101;-65
2023/12/30 11:26:56;;;;;;;7.40;1.48;;;;;;;;;;5076639;28;20055;-63
2023/12/30 11:29:26;;;;;;;7.20;1.60;;;;;;;;;;5063523;28;20143;-63
2023/12/30 11:31:56;;;;;;;6.18;1.83;;;;;;;;;;5058140;28;20089;-63
2023/12/30 11:34:26;;;;;;;20.25;4.85;;;;;;;;;;5040959;28;20090;-63
2023/12/30 11:36:54;;;;;;;9.52;2.20;;;;;;;;;;5071342;28;20097;-63
2023/12/30 11:39:25;;;;;;;7.75;1.40;;;;;;;;;;5057642;28;20052;-63
2023/12/30 11:41:57;;;;;;;6.30;2.05;;;;;;;;;;5058204;28;20263;-62
2023/12/30 11:44:25;;;;;;;8.45;2.38;;;;;;;;;;5059487;28;20135;-63
2023/12/30 11:46:52;;;;;;;6.95;2.13;;;;;;;;;;5059188;28;20049;-64
2023/12/30 11:49:19;;;;;;;13.57;2.50;;;;;;;;;;5070629;28;20075;-65
2023/12/30 11:51:47;;;;;;;9.05;2.30;;;;;;;;;;5064443;28;20064;-62
2023/12/30 11:54:14;;;;;;;10.80;2.35;;;;;;;;;;5064900;28;20075;-63
2023/12/30 11:56:42;;;;;;;15.05;2.35;;;;;;;;;;5074954;28;20048;-63
2023/12/30 11:59:09;;;;;;;9.57;2.10;;;;;;;;;;5064031;28;20163;-63
2023/12/30 12:01:38;;;;;;;9.52;2.83;;;;;;;;;;5064384;28;20059;-63
2023/12/30 12:04:05;;;;;;;14.55;2.95;;;;;;;;;;5048737;28;20148;-63
2023/12/30 12:06:32;;;;;;;11.35;2.83;;;;;;;;;;5067490;28;20067;-63
2023/12/30 12:09:04;;;;;;;15.43;2.80;;;;;;;;;;5071440;28;20098;-64
2023/12/30 12:11:31;;;;;;;10.32;2.92;;;;;;;;;;5060571;28;20051;-63
2023/12/30 12:13:58;;;;;;;9.35;2.45;;;;;;;;;;5071336;28;20055;-63
2023/12/30 12:16:26;;;;;;;8.57;2.30;;;;;;;;;;5077430;28;20055;-64
2023/12/30 12:18:55;;;;;;;9.30;2.60;;;;;;;;;;5079380;28;20079;-65
2023/12/30 12:21:22;;;;;;;6.88;2.58;;;;;;;;;;5070277;28;20132;-63
2023/12/30 12:23:48;;;;;;;9.98;2.67;;;;;;;;;;5068059;28;20079;-63
2023/12/30 12:26:17;;;;;;;14.57;3.03;;;;;;;;;;5071791;28;20055;-63
2023/12/30 12:28:44;;;;;;;11.93;2.78;;;;;;;;;;5062606;28;20052;-62
2023/12/30 12:31:14;;;;;;;18.48;4.63;;;;;;;;;;5057147;28;20064;-63
2023/12/30 12:33:44;;;;;;;18.25;5.32;;;;;;;;;;5068930;28;20121;-62
2023/12/30 12:36:12;;;;;;;16.60;4.72;;;;;;;;;;5071835;28;20063;-63
2023/12/30 12:38:38;;;;;;;10.23;2.38;;;;;;;;;;5090730;28;20134;-63
2023/12/30 12:41:05;;;;;;;9.60;3.15;;;;;;;;;;5055900;28;20143;-63
2023/12/30 12:43:33;;;;;;;7.13;2.25;;;;;;;;;;5061756;28;20075;-63
2023/12/30 12:46:02;;;;;;;11.88;2.90;;;;;;;;;;5068263;28;20910;-63
2023/12/30 12:48:29;;;;;;;14.52;2.85;;;;;;;;;;5078852;28;20143;-64
2023/12/30 12:50:56;;;;;;;10.93;2.85;;;;;;;;;;5058439;28;20061;-64
2023/12/30 12:53:24;;;;;;;15.30;3.30;;;;;;;;;;5061043;28;20181;-63
2023/12/30 12:55:52;;;;;;;12.55;2.67;;;;;;;;;;5053478;28;20072;-63
2023/12/30 12:58:19;;;;;;;11.98;3.00;;;;;;;;;;5077692;28;20059;-62
2023/12/30 13:00:48;;;;;;;8.07;2.30;;;;;;;;;;5045952;28;20060;-65
2023/12/30 13:03:21;;;;;;;7.28;2.47;;;;;;;;;;5061634;28;20044;-65
2023/12/30 13:05:48;;;;;;;7.72;2.45;;;;;;;;;;5065323;28;20056;-65
2023/12/30 13:08:19;;;;;;;9.82;2.65;;;;;;;;;;5073813;28;20051;-64
2023/12/30 13:10:54;;;;;;;5.65;1.88;;;;;;;;;;5005822;28;20136;-65
2023/12/30 13:13:22;;;;;;;8.38;2.15;;;;;;;;;;5061650;28;20117;-65
2023/12/30 13:15:52;;;;;;;;;;;;;;;;;;5073521;28;20048;-65
2023/12/30 13:18:25;;;;;;;12.90;2.13;;;;;;;;;;5074974;28;19924;-65
2023/12/30 13:21:05;;;;;;;8.75;2.22;;;;;;;;;;5048650;28;20044;-64
2023/12/30 13:23:37;;;;;;;7.37;1.77;;;;;;;;;;5072814;28;20147;-63
2023/12/30 13:26:07;;;;;;;9.02;2.33;;;;;;;;;;5071998;28;20048;-64
2023/12/30 13:28:35;;;;;;;13.32;2.15;;;;;;;;;;5078258;28;20052;-65
2023/12/30 13:31:02;;;;;;;9.85;2.90;;;;;;;;;;4992056;28;20053;-65
2023/12/30 13:33:29;;;;;;;9.40;2.40;;;;;;;;;;5067259;28;20063;-64
2023/12/30 13:35:56;;;;;;;9.50;3.10;;;;;;;;;;5052385;28;20200;-65
2023/12/30 13:38:27;;;;;;;7.85;2.28;;;;;;;;;;5069962;28;20044;-65
2023/12/30 13:40:58;;;;;;;11.73;2.65;;;;;;;;;;5023299;28;20224;-64
2023/12/30 13:43:26;;;;;;;15.27;3.22;;;;;;;;;;5059480;28;20054;-65
2023/12/30 13:46:00;;;;;;;17.60;3.90;;;;;;;;;;5062982;28;20052;-63
2023/12/30 13:51:07;;;;;;;11.60;2.30;;;;;;;;;;5053140;28;20109;-63
2023/12/30 13:53:42;;;;;;;14.80;2.10;;;;;;;;;;5067806;28;20056;-63
2023/12/30 13:56:16;;;;;;;8.25;2.35;;;;;;;;;;5061389;28;20040;-65
2023/12/30 13:58:46;;;;;;;5.03;2.17;;;;;;;;;;5073036;28;20060;-63
2023/12/30 14:01:13;;;;;;;9.07;2.15;;;;;;;;;;5004722;28;20127;-62
2023/12/30 14:03:41;;;;;;;6.40;1.92;;;;;;;;;;5059936;28;20062;-66
2023/12/30 14:06:11;;;;;;;11.23;2.72;;;;;;;;;;5077454;28;20056;-63
2023/12/30 14:08:42;;;;;;;8.35;1.83;;;;;;;;;;5060388;28;20056;-63
2023/12/30 14:11:20;;;;;;;7.18;1.90;;;;;;;;;;5054970;28;20066;-63
2023/12/30 14:13:51;;;;;;;14.20;2.40;;;;;;;;;;5062092;28;20101;-63
2023/12/30 14:16:18;;;;;;;12.90;2.20;;;;;;;;;;5074869;28;20154;-63
2023/12/30 14:18:44;;;;;;;14.45;1.90;;;;;;;;;;5071716;28;20048;-63
2023/12/30 14:21:11;;;;;;;10.43;1.70;;;;;;;;;;5059228;28;20063;-63
2023/12/30 14:23:41;;;;;;;13.10;2.00;;;;;;;;;;5069783;28;20474;-63
2023/12/30 14:26:07;;;;;;;12.38;1.65;;;;;;;;;;5059201;28;20056;-63
2023/12/30 14:28:34;;;;;;;13.90;2.10;;;;;;;;;;5063437;28;20056;-62
2023/12/30 14:31:03;;;;;;;11.48;2.70;;;;;;;;;;5056002;28;20051;-63
2023/12/30 14:33:30;;;;;;;;;;;;;;;;;;5066737;28;20057;-63
2023/12/30 14:35:56;;;;;;;10.35;1.85;;;;;;;;;;5062065;28;19992;-62
2023/12/30 14:38:23;;;;;;;12.38;2.55;;;;;;;;;;5072190;28;20045;-63
2023/12/30 14:40:50;;;;;;;8.25;2.33;;;;;;;;;;5053304;28;20186;-64
2023/12/30 14:43:17;;;;;;;10.02;2.33;;;;;;;;;;5075358;28;20048;-63
2023/12/30 14:45:43;;;;;;;14.00;2.72;;;;;;;;;;5057810;28;20127;-63